Atwood, CO

1:36 PM MDT on September 17, 2014 (GMT -0600)
Sterling Municipal | Change Station
CLOSE
Current Station
Airport
Location: Sterling Muni, Sterling, CO,
Elevation: 4039 ft
Nearby Weather Stations

Elev 4039 ft 40.62 °N, 103.26 °W | Updated 26 minutes ago

Clear
Clear
90 °F
Feels Like 88 °F
N
4
Wind Variable Wind from East

Today
High -- | Low -- °F
--% Chance of Precip.
Yesterday
High -- | Low -- °F
Precip. -- in
6:35 AM 6:58 PM
Waning Crescent, 33% visible
Pressure 29.96 in
Visibility 10.0 miles
Clouds Clear
Heat Index 88 °F
Dew Point 55 °F
Humidity 31%
Rainfall 0.00 in
Snow Depth 77 in , 187 in , 0 in
UV 8 out of 12
Pollen 7.00 out of 12
Air Quality Not available.
Flu Activity Not available.
METAR KSTK 171910Z AUTO 09003KT 10SM CLR 32/13 A2996 RMK AO2

More Conditions Fewer Conditions

Pressure 29.96 in
Visibility 10.0 miles
Clouds Clear
Heat Index 88 °F
Dew Point 55 °F
Humidity 31%
Rainfall 0.00 in
Snow Depth 77 in , 187 in , 0 in
UV 8 out of 12
Pollen 7.00 out of 12
Air Quality Not available.
Flu Activity Not available.
METAR KSTK 171910Z AUTO 09003KT 10SM CLR 32/13 A2996 RMK AO2

More Conditions Fewer Conditions

10-Day Weather Forecast

Almanac

Astronomy

Sep. 17, 2014 Rise Set
Actual Time 6:35 AM MDT 6:58 PM MDT
Civil Twilight 6:08 AM MDT 7:25 PM MDT
Nautical Twilight 5:36 AM MDT 7:57 PM MDT
Astronomical Twilight 5:03 AM MDT 8:30 PM MDT
Moon 12:36 AM MDT 3:10 PM MDT
Length of Visible Light 13h 17m
Length of Day
12h 22m
Tomorrow will be 2m 39s shorter.
Waning Crescent, 33% of the Moon is Illuminated
Today
Waning Crescent
Sep 24
New
Oct 1
First Quarter
Oct 8
Full
Oct 15
Last Quarter

Today's Extremes

State Highs State Lows

Community

WunderPhotos

Upload Photos

1,754,139 photos uploaded!

Nearby

Snow Depth

Station Depth Elevation
Lone Cone 0 in 9600 ft
Never Summer 77 in 10280 ft
Independence Pass 187 in 10600 ft
Beaver Creek Village 0 in 8500 ft
Willow Creek Pass 0 in 9540 ft

Earthquake Activity

City Distance Mag. Time & Date
No recent earthquake activity has been reported nearby.
Minimum magnitude displayed is 2.5.

Coastal Water Temperatures

Place Temperature
No Stations Reporting

Nearby Weather Stations